Time;durP1;ratioP1;P1;durP2;ratioP2;P2;SDS_P1;SDS_P2;PMS_P1;PMS_P2;Temp;Humidity;BMP_temperature;BMP_pressure;BME280_temperature;BME280_humidity;BME280_pressure;Samples;Min_cycle;Max_cycle;Signal;HPM_P1;HPM_P2
2023/02/21 02:15:36;;;;;;;51.40;24.87;;;8.60;99.90;;;;;;4916456;29;20297;-82
2023/02/21 02:18:44;;;;;;;46.08;25.20;;;8.60;99.90;;;;;;4898561;29;20182;-82
2023/02/21 02:21:55;;;;;;;50.73;26.07;;;8.60;99.90;;;;;;4897857;29;20799;-80
2023/02/21 02:24:47;;;;;;;47.90;25.00;;;8.60;99.90;;;;;;4915285;29;20229;-82
2023/02/21 02:27:28;;;;;;;50.17;24.97;;;8.60;99.90;;;;;;4899003;29;20194;-81
2023/02/21 02:30:29;;;;;;;47.23;24.30;;;8.60;99.90;;;;;;4897534;29;20194;-81
2023/02/21 02:33:20;;;;;;;45.00;23.37;;;8.60;99.90;;;;;;4898097;29;20193;-81
2023/02/21 02:35:54;;;;;;;55.13;24.77;;;8.60;99.90;;;;;;4917627;29;20214;-80
2023/02/21 02:38:36;;;;;;;57.30;25.17;;;8.70;99.90;;;;;;4904306;29;20281;-80
2023/02/21 02:41:43;;;;;;;49.83;24.17;;;8.60;99.90;;;;;;4902991;29;20179;-81
2023/02/21 02:44:16;;;;;;;50.60;24.67;;;8.60;99.90;;;;;;4897757;29;20198;-81
2023/02/21 02:46:44;;;;;;;52.70;26.27;;;8.70;99.90;;;;;;4901375;29;20199;-81
2023/02/21 02:49:18;;;;;;;49.63;25.50;;;8.60;99.90;;;;;;4918047;29;20186;-81
2023/02/21 02:51:44;;;;;;;55.67;26.47;;;8.60;99.90;;;;;;4919717;29;20170;-80
2023/02/21 02:54:09;;;;;;;48.60;26.10;;;8.60;99.90;;;;;;4902117;29;20194;-81
2023/02/21 02:56:35;;;;;;;52.13;24.97;;;8.60;99.90;;;;;;4902323;29;20688;-80
2023/02/21 02:59:09;;;;;;;52.87;26.47;;;8.70;99.90;;;;;;4916836;29;20213;-81
2023/02/21 03:01:44;;;;;;;51.80;25.87;;;8.60;99.90;;;;;;4902105;29;20174;-81
2023/02/21 03:04:15;;;;;;;49.37;25.23;;;8.60;99.90;;;;;;4902264;29;20197;-81
2023/02/21 03:07:19;;;;;;;52.87;25.90;;;8.60;99.90;;;;;;4918634;29;20636;-81
2023/02/21 03:10:03;;;;;;;55.47;25.17;;;8.60;99.90;;;;;;4899179;29;20182;-81
2023/02/21 03:12:53;;;;;;;54.37;26.03;;;8.70;99.90;;;;;;4905449;29;20293;-81
2023/02/21 03:15:37;;;;;;;54.77;26.03;;;8.60;99.90;;;;;;4902172;29;20294;-81
2023/02/21 03:18:11;;;;;;;45.17;22.70;;;8.70;99.90;;;;;;4900289;29;20186;-80
2023/02/21 03:20:38;;;;;;;48.72;23.02;;;8.70;99.90;;;;;;4918739;29;20190;-81
2023/02/21 03:23:07;;;;;;;46.67;24.80;;;8.70;99.90;;;;;;4901486;29;20190;-81
2023/02/21 03:25:34;;;;;;;47.63;23.97;;;8.70;99.90;;;;;;4918629;29;20210;-81
2023/02/21 03:28:01;;;;;;;46.43;23.90;;;8.70;99.90;;;;;;4917202;29;20214;-80
2023/02/21 03:30:28;;;;;;;45.33;24.63;;;8.60;99.90;;;;;;4901344;29;20182;-80
2023/02/21 03:32:55;;;;;;;45.97;22.30;;;8.60;99.90;;;;;;4918623;29;20190;-81
2023/02/21 03:35:21;;;;;;;47.73;24.93;;;8.70;99.90;;;;;;4918999;29;20714;-80
2023/02/21 03:37:51;;;;;;;46.17;23.60;;;8.70;99.90;;;;;;4917080;29;20218;-79
2023/02/21 03:40:19;;;;;;;44.33;24.00;;;8.70;99.90;;;;;;4901081;29;20549;-81
2023/02/21 03:42:44;;;;;;;46.17;22.77;;;8.70;99.90;;;;;;4901294;29;20194;-81
2023/02/21 03:45:10;;;;;;;44.73;23.27;;;8.60;99.90;;;;;;4918497;29;20503;-81
2023/02/21 03:47:36;;;;;;;46.40;23.67;;;8.70;99.90;;;;;;4917163;29;20194;-80
2023/02/21 03:50:03;;;;;;;46.37;24.27;;;8.70;99.90;;;;;;4901050;29;20190;-81
2023/02/21 03:52:30;;;;;;;43.67;22.97;;;8.70;99.90;;;;;;4900324;29;20606;-81
2023/02/21 03:54:55;;;;;;;44.08;24.17;;;8.70;99.90;;;;;;4917964;29;20218;-81
2023/02/21 03:57:21;;;;;;;42.23;22.60;;;8.70;99.90;;;;;;4899985;29;20186;-81
2023/02/21 03:59:47;;;;;;;48.97;23.73;;;8.70;99.90;;;;;;4900956;29;20191;-80
2023/02/21 04:02:13;;;;;;;46.17;24.20;;;8.70;99.90;;;;;;4916237;29;20690;-81
2023/02/21 04:04:39;;;;;;;42.90;23.67;;;8.80;99.90;;;;;;4918128;29;20194;-81
2023/02/21 04:07:04;;;;;;;46.97;24.27;;;8.70;99.90;;;;;;4900642;29;20186;-81
2023/02/21 04:09:30;;;;;;;50.15;25.73;;;8.70;99.90;;;;;;4899912;29;20491;-81
2023/02/21 04:11:56;;;;;;;50.50;25.30;;;8.70;99.90;;;;;;4900051;29;20189;-80
2023/02/21 04:14:21;;;;;;;42.63;24.03;;;8.80;99.90;;;;;;4915241;29;20537;-80
2023/02/21 04:16:47;;;;;;;45.40;25.07;;;8.80;99.90;;;;;;4901630;29;20246;-80
2023/02/21 04:19:13;;;;;;;43.73;23.77;;;8.90;99.90;;;;;;4898332;29;20178;-80
2023/02/21 04:21:39;;;;;;;45.33;24.57;;;8.80;99.90;;;;;;4917130;29;20193;-80
2023/02/21 04:24:05;;;;;;;44.00;23.17;;;8.80;99.90;;;;;;4899819;29;20238;-80
2023/02/21 04:26:30;;;;;;;46.27;24.20;;;8.80;99.90;;;;;;4901267;29;20183;-81
2023/02/21 04:28:56;;;;;;;43.63;23.50;;;8.80;99.90;;;;;;4914942;29;20193;-80
2023/02/21 04:31:22;;;;;;;42.53;24.10;;;8.90;99.90;;;;;;4915805;29;20190;-80
2023/02/21 04:33:48;;;;;;;43.22;23.35;;;9.00;99.90;;;;;;4900087;29;20210;-80
2023/02/21 04:36:14;;;;;;;45.20;23.67;;;8.90;99.90;;;;;;4899947;29;20677;-81
2023/02/21 04:38:40;;;;;;;39.85;23.00;;;8.80;99.90;;;;;;4912978;29;20187;-79
2023/02/21 04:41:06;;;;;;;44.60;23.83;;;8.90;99.90;;;;;;4912300;29;20197;-80
2023/02/21 04:43:32;;;;;;;41.83;23.73;;;8.80;99.90;;;;;;4916492;29;20190;-81
2023/02/21 04:45:58;;;;;;;40.63;22.07;;;8.80;99.90;;;;;;4900196;29;20206;-80
2023/02/21 04:48:25;;;;;;;45.43;24.00;;;8.80;99.90;;;;;;4899639;29;20583;-78
2023/02/21 04:50:50;;;;;;;43.03;22.87;;;8.80;99.90;;;;;;4916991;29;20533;-82
2023/02/21 04:53:16;;;;;;;43.63;22.97;;;8.80;99.90;;;;;;4898668;29;20187;-81
2023/02/21 04:55:42;;;;;;;46.50;23.90;;;8.80;99.90;;;;;;4900664;29;20596;-81
2023/02/21 04:58:08;;;;;;;43.70;22.73;;;8.80;99.90;;;;;;4900122;29;20186;-80
2023/02/21 05:00:33;;;;;;;42.67;23.10;;;8.80;99.90;;;;;;4916911;29;20205;-80
2023/02/21 05:02:59;;;;;;;47.07;23.87;;;8.70;99.90;;;;;;4915278;29;20637;-81
2023/02/21 05:05:25;;;;;;;44.20;22.50;;;8.70;99.90;;;;;;4900318;29;20195;-81
2023/02/21 05:07:51;;;;;;;47.43;24.37;;;8.80;99.90;;;;;;4900551;29;20191;-80
2023/02/21 05:10:17;;;;;;;45.00;23.20;;;8.70;99.90;;;;;;4917487;29;20171;-80
2023/02/21 05:12:43;;;;;;;53.00;25.60;;;8.70;99.90;;;;;;4913791;29;20195;-80
2023/02/21 05:15:11;;;;;;;46.77;24.73;;;8.80;99.90;;;;;;4898364;29;20249;-80
2023/02/21 05:17:36;;;;;;;46.27;23.33;;;8.80;99.90;;;;;;4916295;29;20178;-81
2023/02/21 05:20:03;;;;;;;47.47;25.03;;;8.70;99.90;;;;;;4899562;29;20285;-81
2023/02/21 05:22:29;;;;;;;45.40;23.33;;;8.70;99.90;;;;;;4916447;29;20171;-79
2023/02/21 05:24:55;;;;;;;51.07;25.27;;;8.80;99.90;;;;;;4915373;29;20214;-81
2023/02/21 05:27:21;;;;;;;52.93;25.77;;;8.80;99.90;;;;;;4899372;29;20188;-80
2023/02/21 05:29:49;;;;;;;49.13;24.80;;;8.90;99.90;;;;;;4913089;29;20194;-81
2023/02/21 05:32:15;;;;;;;47.73;25.17;;;8.80;99.90;;;;;;4913454;29;20187;-81
2023/02/21 05:34:45;;;;;;;45.47;24.60;;;8.80;99.90;;;;;;4899411;29;20556;-81
2023/02/21 05:37:15;;;;;;;48.87;25.87;;;8.70;99.90;;;;;;4916788;29;20190;-81
2023/02/21 05:39:41;;;;;;;49.57;25.10;;;8.80;99.90;;;;;;4914743;29;20182;-82
2023/02/21 05:42:07;;;;;;;55.03;26.83;;;8.70;99.90;;;;;;4898069;29;20199;-80
2023/02/21 05:44:33;;;;;;;51.53;25.93;;;8.80;99.90;;;;;;4897560;29;20207;-81
2023/02/21 05:47:01;;;;;;;47.75;24.50;;;8.80;99.90;;;;;;4896163;29;20180;-81
2023/02/21 05:49:27;;;;;;;52.90;25.53;;;8.70;99.90;;;;;;4906160;29;20204;-81
2023/02/21 05:51:53;;;;;;;47.57;25.63;;;8.80;99.90;;;;;;4911837;29;20954;-81
2023/02/21 05:54:21;;;;;;;47.20;23.87;;;8.80;99.90;;;;;;4911902;29;20198;-81
2023/02/21 05:56:49;;;;;;;49.53;25.43;;;8.80;99.90;;;;;;4899573;29;20194;-82
2023/02/21 05:59:19;;;;;;;47.87;25.13;;;8.80;99.90;;;;;;4909433;29;20194;-80
2023/02/21 06:01:45;;;;;;;43.35;23.95;;;8.80;99.90;;;;;;4898231;29;20182;-82
2023/02/21 06:04:11;;;;;;;42.37;24.20;;;8.80;99.90;;;;;;4898794;29;20186;-81
2023/02/21 06:06:37;;;;;;;42.83;23.17;;;8.80;99.90;;;;;;4917871;29;20197;-82
2023/02/21 06:09:04;;;;;;;40.70;22.63;;;8.80;99.90;;;;;;4894332;29;20609;-82
2023/02/21 06:11:32;;;;;;;47.03;23.00;;;8.80;99.90;;;;;;4900535;29;20202;-81
2023/02/21 06:14:02;;;;;;;42.07;23.63;;;8.80;99.90;;;;;;4897631;29;20198;-83
2023/02/21 06:16:35;;;;;;;47.40;24.63;;;8.80;99.90;;;;;;4902929;29;20234;-83
2023/02/21 06:19:02;;;;;;;44.67;22.90;;;8.80;99.90;;;;;;4901883;29;20194;-81
2023/02/21 06:21:28;;;;;;;47.47;24.93;;;8.90;99.90;;;;;;4901470;29;20182;-82
2023/02/21 06:23:54;;;;;;;46.87;25.33;;;8.90;99.90;;;;;;4902850;29;20590;-81
2023/02/21 06:26:20;;;;;;;45.03;23.97;;;8.90;99.90;;;;;;4917679;29;20518;-82
2023/02/21 06:28:47;;;;;;;43.00;23.70;;;8.80;99.90;;;;;;4902107;29;20198;-82
2023/02/21 06:31:13;;;;;;;46.40;24.53;;;8.70;99.90;;;;;;4899115;29;20205;-82
2023/02/21 06:33:38;;;;;;;44.37;23.50;;;8.80;99.90;;;;;;4916444;29;20190;-83
2023/02/21 06:36:06;;;;;;;48.80;23.70;;;8.80;99.90;;;;;;4917787;29;20231;-82
2023/02/21 06:38:32;;;;;;;44.03;23.67;;;8.90;99.90;;;;;;4902698;29;20190;-82
2023/02/21 06:40:58;;;;;;;47.47;23.77;;;8.80;99.90;;;;;;4918964;29;20222;-82
2023/02/21 06:43:24;;;;;;;42.10;23.45;;;8.80;99.90;;;;;;4902014;29;20273;-82
2023/02/21 06:45:49;;;;;;;48.70;25.47;;;8.90;99.90;;;;;;4900121;29;20649;-81
2023/02/21 06:48:16;;;;;;;45.93;24.13;;;8.90;99.90;;;;;;4901452;29;20191;-82
2023/02/21 06:50:42;;;;;;;45.83;24.20;;;8.90;99.90;;;;;;4901810;29;20193;-81
2023/02/21 06:53:07;;;;;;;40.20;22.77;;;8.80;99.90;;;;;;4903079;29;20183;-81
2023/02/21 06:55:33;;;;;;;44.20;23.90;;;8.80;99.90;;;;;;4901004;29;20316;-81
2023/02/21 06:57:59;;;;;;;46.45;24.45;;;8.80;99.90;;;;;;4916227;29;20527;-82
2023/02/21 07:00:25;;;;;;;48.13;24.97;;;8.70;99.90;;;;;;4918771;29;20182;-83
2023/02/21 07:02:52;;;;;;;48.15;24.55;;;8.80;99.90;;;;;;4902845;29;20557;-82
2023/02/21 07:05:18;;;;;;;47.33;25.27;;;8.90;99.90;;;;;;4902315;29;20633;-83
2023/02/21 07:07:44;;;;;;;44.73;25.57;;;8.80;99.90;;;;;;4902438;29;20182;-82
2023/02/21 07:10:12;;;;;;;44.33;25.83;;;8.90;99.90;;;;;;4901613;29;20178;-82
2023/02/21 07:12:38;;;;;;;52.83;25.88;;;8.80;99.90;;;;;;4901794;29;20273;-81
2023/02/21 07:15:04;;;;;;;49.73;25.87;;;8.80;99.90;;;;;;4901298;29;20238;-82
2023/02/21 07:17:30;;;;;;;51.20;25.07;;;8.90;99.90;;;;;;4902273;29;20210;-82
2023/02/21 07:19:56;;;;;;;49.08;26.05;;;8.80;99.90;;;;;;4919170;29;20222;-83
2023/02/21 07:22:25;;;;;;;53.93;27.20;;;8.80;99.90;;;;;;4917364;29;20523;-82
2023/02/21 07:24:55;;;;;;;51.77;26.60;;;8.80;99.90;;;;;;4900806;29;20217;-82
2023/02/21 07:27:21;;;;;;;51.03;27.17;;;8.80;99.90;;;;;;4902457;29;20185;-82
2023/02/21 07:29:48;;;;;;;46.55;24.90;;;8.80;99.90;;;;;;4899929;29;20197;-81
2023/02/21 07:32:16;;;;;;;48.70;26.23;;;8.90;99.90;;;;;;4901213;29;20193;-82
2023/02/21 07:34:42;;;;;;;43.67;24.25;;;8.90;99.90;;;;;;4916832;29;20241;-81
2023/02/21 07:37:08;;;;;;;43.05;23.98;;;8.90;99.90;;;;;;4900404;29;20198;-82
2023/02/21 07:39:34;;;;;;;43.88;24.30;;;8.90;99.90;;;;;;4900932;29;20190;-82
2023/02/21 07:42:00;;;;;;;44.53;24.30;;;9.00;99.90;;;;;;4901438;29;20652;-81
2023/02/21 07:44:25;;;;;;;47.83;25.48;;;8.90;99.90;;;;;;4900112;29;20187;-82
2023/02/21 07:46:51;;;;;;;44.27;23.93;;;8.90;99.90;;;;;;4899857;29;20226;-82
2023/02/21 07:49:17;;;;;;;43.10;23.13;;;8.90;99.90;;;;;;4901102;29;20532;-82
2023/02/21 07:51:43;;;;;;;47.10;25.97;;;8.90;99.90;;;;;;4898680;29;20261;-82
2023/02/21 07:54:08;;;;;;;51.40;26.30;;;8.90;99.90;;;;;;4917264;29;20277;-82
2023/02/21 07:56:34;;;;;;;46.47;24.53;;;8.90;99.90;;;;;;4914581;29;20266;-81
2023/02/21 07:59:00;;;;;;;45.50;24.85;;;8.90;99.90;;;;;;4899342;29;20191;-82
2023/02/21 08:01:26;;;;;;;46.50;24.93;;;8.90;99.90;;;;;;4900022;29;20324;-82
2023/02/21 08:03:52;;;;;;;45.47;24.08;;;8.90;99.90;;;;;;4899214;29;20187;-81
2023/02/21 08:06:18;;;;;;;47.28;24.25;;;9.00;99.90;;;;;;4891515;29;20193;-81
2023/02/21 08:08:44;;;;;;;45.93;24.20;;;9.00;99.90;;;;;;4916865;29;20306;-81
2023/02/21 08:11:10;;;;;;;46.53;24.40;;;9.00;99.90;;;;;;4917885;29;20223;-82
2023/02/21 08:13:36;;;;;;;47.47;25.25;;;9.00;99.90;;;;;;4913184;29;20214;-81
2023/02/21 08:16:01;;;;;;;45.27;24.37;;;8.90;99.90;;;;;;4895195;29;20254;-82
2023/02/21 08:18:28;;;;;;;50.50;26.08;;;8.90;99.90;;;;;;4901691;29;20207;-82
2023/02/21 08:20:56;;;;;;;49.60;26.33;;;9.00;99.90;;;;;;4912039;29;20249;-83
2023/02/21 08:23:22;;;;;;;49.03;25.58;;;9.00;99.90;;;;;;4901007;29;20187;-81
2023/02/21 08:25:48;;;;;;;46.67;25.10;;;9.00;99.90;;;;;;4901270;29;20194;-82
2023/02/21 08:28:15;;;;;;;54.75;25.88;;;9.00;99.90;;;;;;4899126;29;20198;-82
2023/02/21 08:30:41;;;;;;;55.07;27.67;;;9.00;99.90;;;;;;4913778;29;20198;-81
2023/02/21 08:33:07;;;;;;;58.07;27.67;;;9.00;99.90;;;;;;4899728;29;20189;-83
2023/02/21 08:35:32;;;;;;;54.03;26.58;;;9.00;99.90;;;;;;4898928;29;20281;-81
2023/02/21 08:38:01;;;;;;;49.83;26.50;;;9.00;99.90;;;;;;4915426;29;20197;-80
2023/02/21 08:40:29;;;;;;;60.73;27.87;;;9.00;99.90;;;;;;4916052;29;20273;-82
2023/02/21 08:42:56;;;;;;;50.95;26.65;;;9.10;99.90;;;;;;4916735;29;20258;-81
2023/02/21 08:45:24;;;;;;;48.30;25.80;;;9.10;99.90;;;;;;4916769;29;20194;-81
2023/02/21 08:47:50;;;;;;;49.33;25.38;;;9.10;99.90;;;;;;4899282;29;20197;-82
2023/02/21 08:50:18;;;;;;;54.23;27.67;;;9.10;99.90;;;;;;4899702;29;20242;-80
2023/02/21 08:52:48;;;;;;;49.88;25.60;;;9.20;99.90;;;;;;4915677;29;20249;-81
2023/02/21 08:55:15;;;;;;;51.33;25.65;;;9.20;99.90;;;;;;4900143;29;20226;-81
2023/02/21 08:57:40;;;;;;;53.03;27.70;;;9.20;99.90;;;;;;4899304;29;20530;-82
2023/02/21 09:00:13;;;;;;;52.05;26.77;;;9.20;99.90;;;;;;4899250;29;20199;-80
2023/02/21 09:02:39;;;;;;;52.63;26.33;;;9.20;99.90;;;;;;4899272;29;20214;-81
2023/02/21 09:05:11;;;;;;;49.00;26.75;;;9.20;99.90;;;;;;4899488;29;20265;-82
2023/02/21 09:07:37;;;;;;;50.97;25.83;;;9.20;99.90;;;;;;4899114;29;20195;-81
2023/02/21 09:10:04;;;;;;;49.80;26.13;;;9.20;99.90;;;;;;4915962;29;20212;-81
2023/02/21 09:12:30;;;;;;;44.50;24.27;;;9.30;99.90;;;;;;4899660;29;20634;-81
2023/02/21 09:14:55;;;;;;;43.13;23.93;;;9.40;99.90;;;;;;4900016;29;20266;-82
2023/02/21 09:17:21;;;;;;;43.45;23.52;;;9.40;99.90;;;;;;4897962;29;20520;-80
2023/02/21 09:19:47;;;;;;;44.33;24.70;;;9.40;99.90;;;;;;4911912;29;20238;-81
2023/02/21 09:22:13;;;;;;;42.20;23.90;;;9.30;99.90;;;;;;4898258;29;20217;-81
2023/02/21 09:24:38;;;;;;;46.20;25.33;;;9.30;99.90;;;;;;4915507;29;20198;-82
2023/02/21 09:27:05;;;;;;;41.70;24.10;;;9.30;99.90;;;;;;4899471;29;20192;-82
2023/02/21 09:29:32;;;;;;;43.63;24.73;;;9.40;99.90;;;;;;4915323;29;20701;-81
2023/02/21 09:31:59;;;;;;;46.57;22.93;;;9.40;99.90;;;;;;4898243;29;20697;-83
2023/02/21 09:34:26;;;;;;;44.95;25.20;;;9.50;99.90;;;;;;4897955;29;21407;-81
2023/02/21 09:36:53;;;;;;;43.67;24.33;;;9.50;99.90;;;;;;4915350;29;20505;-82
2023/02/21 09:39:20;;;;;;;41.85;25.02;;;9.50;99.90;;;;;;4914333;29;20214;-81
2023/02/21 09:41:47;;;;;;;48.25;26.00;;;9.50;99.90;;;;;;4898660;29;20250;-81
2023/02/21 09:44:20;;;;;;;44.00;23.52;;;9.60;99.90;;;;;;4916506;29;20173;-81
2023/02/21 09:46:57;;;;;;;45.00;25.13;;;9.60;99.90;;;;;;4898757;29;20222;-82
2023/02/21 09:49:39;;;;;;;45.92;25.30;;;9.50;99.90;;;;;;4909201;29;20190;-82
2023/02/21 09:52:14;;;;;;;43.67;24.63;;;9.60;99.90;;;;;;4897957;29;20182;-83
2023/02/21 09:54:49;;;;;;;42.78;23.88;;;9.60;99.90;;;;;;4899395;29;20190;-82
2023/02/21 09:57:17;;;;;;;42.70;23.77;;;9.60;99.90;;;;;;4898519;29;20194;-80
2023/02/21 09:59:43;;;;;;;41.13;24.50;;;9.60;99.90;;;;;;4914072;29;20201;-81
2023/02/21 10:02:23;;;;;;;41.63;23.88;;;9.60;99.90;;;;;;4898635;29;20198;-82
2023/02/21 10:05:02;;;;;;;46.88;24.15;;;9.60;99.90;;;;;;4899466;29;20245;-81
2023/02/21 10:08:03;;;;;;;43.40;23.95;;;9.70;99.90;;;;;;4914712;29;20694;-82
2023/02/21 10:10:41;;;;;;;43.75;22.00;;;9.70;99.90;;;;;;4913857;29;20197;-81
2023/02/21 10:13:37;;;;;;;37.47;22.40;;;9.80;99.90;;;;;;4910432;29;20218;-81
2023/02/21 10:16:20;;;;;;;40.67;23.15;;;9.80;99.90;;;;;;4912987;29;20662;-81
2023/02/21 10:19:02;;;;;;;36.88;22.30;;;9.70;99.90;;;;;;4915779;29;20218;-81
2023/02/21 10:21:41;;;;;;;40.13;23.23;;;9.70;99.90;;;;;;4897227;29;20187;-83
2023/02/21 10:24:13;;;;;;;35.83;22.40;;;9.70;99.90;;;;;;4914014;29;20221;-82
2023/02/21 10:26:41;;;;;;;35.78;21.58;;;9.70;99.90;;;;;;4898560;29;20190;-81
2023/02/21 10:29:24;;;;;;;36.15;22.23;;;9.80;99.90;;;;;;4898980;29;20190;-81
2023/02/21 10:31:56;;;;;;;34.95;20.65;;;9.90;99.90;;;;;;4892669;29;20183;-81
2023/02/21 10:34:27;;;;;;;37.00;21.05;;;9.90;99.90;;;;;;4897347;29;20654;-81
2023/02/21 10:37:06;;;;;;;35.60;21.00;;;9.90;99.90;;;;;;4914922;29;20209;-81
2023/02/21 10:39:41;;;;;;;32.97;19.80;;;9.90;99.90;;;;;;4914923;29;20485;-80
2023/02/21 10:42:13;;;;;;;36.05;20.65;;;9.90;99.90;;;;;;4915486;29;20176;-81
2023/02/21 10:44:39;;;;;;;32.45;19.35;;;10.00;99.90;;;;;;4908401;29;20653;-81
2023/02/21 10:47:15;;;;;;;31.55;19.67;;;10.00;99.90;;;;;;4915502;29;20187;-81
2023/02/21 10:50:05;;;;;;;29.52;18.92;;;10.00;99.90;;;;;;4915254;29;20201;-82
2023/02/21 10:52:51;;;;;;;37.13;20.10;;;10.00;99.90;;;;;;4901336;29;20234;-81
2023/02/21 10:55:20;;;;;;;32.13;19.25;;;10.10;99.90;;;;;;4918911;29;20246;-81
2023/02/21 10:57:52;;;;;;;32.88;19.83;;;10.10;99.90;;;;;;4898994;29;20194;-80
2023/02/21 11:00:46;;;;;;;31.45;19.33;;;10.10;99.90;;;;;;4908734;29;20294;-81
2023/02/21 11:03:30;;;;;;;35.40;19.15;;;10.10;99.90;;;;;;4911942;29;20179;-81
2023/02/21 11:05:57;;;;;;;26.08;17.50;;;10.20;99.90;;;;;;4902708;29;20183;-81
2023/02/21 11:08:39;;;;;;;32.05;17.92;;;10.20;99.90;;;;;;4916603;29;20308;-82
2023/02/21 11:11:06;;;;;;;31.17;17.35;;;10.20;99.90;;;;;;4918597;29;20214;-81
2023/02/21 11:13:33;;;;;;;30.23;17.30;;;10.20;99.90;;;;;;4901690;29;20186;-80
2023/02/21 11:16:21;;;;;;;28.25;17.45;;;10.30;99.90;;;;;;4900885;29;20238;-82
2023/02/21 11:19:03;;;;;;;29.23;17.73;;;10.30;99.90;;;;;;4916612;29;20190;-81
2023/02/21 11:21:29;;;;;;;29.42;17.20;;;10.30;99.90;;;;;;4900708;29;20190;-80
2023/02/21 11:24:02;;;;;;;28.02;16.05;;;10.50;99.90;;;;;;4915429;29;20210;-88
2023/02/21 11:26:42;;;;;;;25.55;16.55;;;10.40;99.90;;;;;;4904155;29;20295;-88
2023/02/21 11:29:12;;;;;;;28.08;16.70;;;10.50;99.90;;;;;;4916062;29;20186;-87
2023/02/21 11:31:39;;;;;;;30.23;18.15;;;10.50;99.90;;;;;;4923487;29;20193;-87
2023/02/21 11:34:07;;;;;;;29.08;17.42;;;10.50;99.90;;;;;;4907483;29;20198;-86
2023/02/21 11:36:37;;;;;;;25.33;16.08;;;10.50;99.90;;;;;;4894681;29;20246;-88
2023/02/21 11:39:17;;;;;;;28.15;16.98;;;10.40;99.90;;;;;;4919981;29;20193;-87
2023/02/21 11:42:21;;;;;;;25.13;16.40;;;10.50;99.90;;;;;;4903084;29;20190;-88
2023/02/21 11:44:49;;;;;;;27.52;16.13;;;10.50;99.90;;;;;;4903319;29;20187;-88
2023/02/21 11:47:27;;;;;;;25.30;15.82;;;10.50;99.90;;;;;;4903832;29;20189;-87
2023/02/21 11:50:07;;;;;;;29.35;15.85;;;10.60;99.90;;;;;;4918076;29;20186;-87
2023/02/21 11:53:01;;;;;;;26.70;16.10;;;10.60;99.90;;;;;;4910902;29;20194;-88
2023/02/21 11:55:27;;;;;;;24.35;14.85;;;10.70;99.90;;;;;;4893209;29;20309;-86
2023/02/21 11:58:18;;;;;;;27.35;15.43;;;10.80;99.90;;;;;;4901657;29;20210;-85
2023/02/21 12:01:11;;;;;;;22.45;14.18;;;10.70;99.90;;;;;;4902466;29;20190;-87
2023/02/21 12:03:59;;;;;;;27.63;14.77;;;10.80;99.90;;;;;;4903083;29;20186;-86
2023/02/21 12:07:04;;;;;;;22.25;14.48;;;10.90;99.90;;;;;;4902476;29;20255;-86
2023/02/21 12:09:45;;;;;;;23.10;13.73;;;11.00;99.90;;;;;;4900559;29;20194;-86
2023/02/21 12:12:57;;;;;;;21.52;13.23;;;11.00;99.90;;;;;;4898837;29;20182;-87
2023/02/21 12:15:33;;;;;;;22.33;14.32;;;10.90;99.90;;;;;;4901120;29;20324;-87
2023/02/21 12:18:24;;;;;;;21.95;14.30;;;10.90;99.90;;;;;;4902748;29;20197;-88
2023/02/21 12:21:24;;;;;;;22.15;13.15;;;10.90;99.90;;;;;;4888935;29;20296;-87
2023/02/21 12:24:18;;;;;;;18.42;12.38;;;10.70;99.90;;;;;;4897063;29;20195;-84
2023/02/21 12:27:26;;;;;;;20.42;13.23;;;10.80;99.90;;;;;;4901282;29;20693;-87
2023/02/21 12:30:13;;;;;;;20.85;13.25;;;10.70;99.90;;;;;;4901922;29;20194;-85
2023/02/21 12:33:17;;;;;;;21.27;13.20;;;10.60;99.90;;;;;;4905971;29;20190;-87
2023/02/21 12:35:52;;;;;;;20.40;13.43;;;10.60;99.90;;;;;;4899031;29;20234;-86
2023/02/21 12:38:38;;;;;;;21.25;13.70;;;10.60;99.90;;;;;;4900933;29;20210;-86
2023/02/21 12:41:09;;;;;;;20.85;12.68;;;10.50;99.90;;;;;;4917378;29;20202;-86
2023/02/21 12:44:05;;;;;;;19.70;13.15;;;10.60;99.90;;;;;;4901396;29;20197;-86
2023/02/21 12:46:50;;;;;;;23.95;13.52;;;10.60;99.90;;;;;;4917156;29;20233;-80
2023/02/21 12:49:18;;;;;;;22.30;14.25;;;10.70;99.90;;;;;;4917229;29;20266;-81
2023/02/21 12:51:58;;;;;;;26.02;15.32;;;10.80;99.90;;;;;;4908740;29;20238;-81
2023/02/21 12:54:38;;;;;;;26.85;15.13;;;10.80;99.90;;;;;;4915047;29;20186;-83
2023/02/21 12:57:11;;;;;;;26.83;16.30;;;10.80;99.90;;;;;;4916580;29;20205;-82
2023/02/21 12:59:55;;;;;;;27.20;15.63;;;10.80;99.90;;;;;;4916362;29;20525;-81
2023/02/21 13:02:34;;;;;;;25.55;16.05;;;10.80;99.90;;;;;;4918030;29;20178;-80
2023/02/21 13:05:26;;;;;;;24.58;14.93;;;10.80;99.90;;;;;;4915228;29;20396;-79
2023/02/21 13:08:06;;;;;;;25.55;15.55;;;10.80;99.90;;;;;;4915762;29;20204;-81
2023/02/21 13:10:44;;;;;;;25.17;14.75;;;10.70;99.90;;;;;;4916547;29;20178;-80
2023/02/21 13:13:17;;;;;;;20.75;14.38;;;10.70;99.90;;;;;;4915100;29;21914;-85
2023/02/21 13:15:46;;;;;;;21.05;13.93;;;10.80;99.90;;;;;;4897184;29;20242;-82
2023/02/21 13:18:20;;;;;;;22.17;13.95;;;10.80;99.90;;;;;;4911677;29;20198;-81
2023/02/21 13:21:20;;;;;;;22.15;14.00;;;10.80;99.90;;;;;;4908942;29;20377;-83
2023/02/21 13:23:52;;;;;;;23.52;14.07;;;10.80;99.90;;;;;;4898730;29;20237;-80
2023/02/21 13:26:42;;;;;;;22.67;13.40;;;11.00;99.90;;;;;;4916168;29;20186;-81
2023/02/21 13:29:21;;;;;;;24.05;13.70;;;11.00;99.90;;;;;;4912928;29;20198;-80
2023/02/21 13:31:56;;;;;;;21.70;12.80;;;10.90;99.90;;;;;;4916457;29;20568;-82
2023/02/21 13:34:25;;;;;;;20.73;12.88;;;10.90;99.90;;;;;;4916015;29;20178;-81
2023/02/21 13:36:51;;;;;;;19.33;12.77;;;11.10;99.90;;;;;;4916350;29;20222;-80
2023/02/21 13:39:30;;;;;;;19.13;13.57;;;11.20;99.90;;;;;;4914662;29;20237;-81
2023/02/21 13:42:08;;;;;;;23.17;13.38;;;11.10;99.90;;;;;;4915744;29;20194;-80
2023/02/21 13:44:44;;;;;;;20.25;13.27;;;11.10;99.90;;;;;;4915139;29;20222;-80
2023/02/21 13:47:17;;;;;;;20.60;12.30;;;11.00;99.90;;;;;;4899207;29;20547;-80
2023/02/21 13:49:51;;;;;;;20.15;12.05;;;11.10;99.90;;;;;;4915611;29;20218;-81
2023/02/21 13:52:22;;;;;;;20.90;12.13;;;11.10;99.90;;;;;;4913935;29;20266;-80
2023/02/21 13:55:19;;;;;;;16.08;10.63;;;11.10;99.90;;;;;;4914985;29;20186;-80
2023/02/21 13:57:56;;;;;;;17.25;10.40;;;11.10;99.90;;;;;;4905592;29;20640;-80
2023/02/21 14:00:30;;;;;;;15.45;10.27;;;11.10;99.90;;;;;;4898062;29;20175;-82
2023/02/21 14:03:22;;;;;;;16.88;11.45;;;11.10;99.90;;;;;;4896578;29;20190;-84
2023/02/21 14:05:49;;;;;;;17.17;10.73;;;11.00;99.90;;;;;;4895931;29;20528;-79
2023/02/21 14:08:25;;;;;;;19.30;10.48;;;11.00;99.90;;;;;;4915176;29;20205;-80
2023/02/21 14:11:06;;;;;;;16.02;10.52;;;11.00;99.90;;;;;;4897663;29;20175;-80
2023/02/21 14:13:58;;;;;;;16.70;10.35;;;10.90;99.90;;;;;;4898678;29;20186;-80
2023/02/21 14:16:52;;;;;;;17.30;10.23;;;10.90;99.90;;;;;;4877521;29;20626;-80
2023/02/21 14:19:29;;;;;;;17.20;10.70;;;10.80;99.90;;;;;;4896304;29;20557;-80
2023/02/21 14:22:02;;;;;;;15.10;9.85;;;10.80;99.90;;;;;;4912093;29;20191;-80
2023/02/21 14:24:41;;;;;;;16.70;10.88;;;10.90;99.90;;;;;;4896801;29;20171;-80
2023/02/21 14:27:11;;;;;;;16.15;11.00;;;11.00;99.90;;;;;;4896896;29;20285;-79
2023/02/21 14:30:11;;;;;;;16.88;10.32;;;11.00;99.90;;;;;;4892879;29;20198;-79
2023/02/21 14:32:40;;;;;;;15.45;9.90;;;11.00;99.90;;;;;;4882964;29;20523;-80
2023/02/21 14:35:15;;;;;;;16.00;10.13;;;10.90;99.90;;;;;;4880198;29;20206;-80
2023/02/21 14:37:51;;;;;;;15.95;9.95;;;10.90;99.90;;;;;;4901750;29;20187;-80
2023/02/21 14:40:17;;;;;;;16.98;10.90;;;10.80;99.90;;;;;;4900086;29;20258;-80
2023/02/21 14:42:50;;;;;;;19.65;10.32;;;10.80;99.90;;;;;;4884902;29;20243;-80
2023/02/21 14:45:43;;;;;;;14.65;10.40;;;10.80;99.90;;;;;;4887334;29;20198;-79
2023/02/21 14:48:16;;;;;;;18.25;10.43;;;10.80;99.90;;;;;;4900074;29;20250;-80
2023/02/21 14:51:19;;;;;;;17.48;10.38;;;10.80;99.90;;;;;;4896330;29;20194;-78
2023/02/21 14:54:08;;;;;;;15.75;10.25;;;10.80;99.90;;;;;;4913335;29;20195;-79
2023/02/21 14:56:46;;;;;;;17.85;11.38;;;10.80;99.90;;;;;;4888495;29;20255;-79
2023/02/21 14:59:40;;;;;;;18.90;10.15;;;10.70;99.90;;;;;;4913472;29;20183;-79
2023/02/21 15:02:30;;;;;;;14.75;9.32;;;10.70;99.90;;;;;;4900042;29;20220;-78
2023/02/21 15:05:06;;;;;;;16.75;10.32;;;10.70;99.90;;;;;;4914003;29;20183;-79
2023/02/21 15:07:38;;;;;;;12.77;9.70;;;10.70;99.90;;;;;;4899251;29;20202;-79
2023/02/21 15:10:06;;;;;;;16.25;10.38;;;10.80;99.90;;;;;;4899641;29;20187;-79
2023/02/21 15:12:38;;;;;;;16.17;10.50;;;10.70;99.90;;;;;;4899481;29;20501;-79
2023/02/21 15:15:04;;;;;;;14.50;10.15;;;10.60;99.90;;;;;;4910332;29;20234;-79
2023/02/21 15:17:30;;;;;;;15.27;9.93;;;10.70;99.90;;;;;;4919260;29;20179;-79